METAR Data
IDs: Format: Raw Decoded Include TAF

Data at: 1422 UTC 10 Jul 2020

METAR for:TIST (St Thomas/King Arpt, --, VI)
Text:TIST 101353Z 13013KT 10SM SCT035 31/23 A3006 RMK AO2 SLP179 T03060228
Temperature: 30.6°C ( 87°F)
Dewpoint: 22.8°C ( 73°F) [RH = 63%]
Pressure (altimeter):30.06 inches Hg (1018.0 mb) [Sea level pressure: 1017.9 mb]
Winds:from the SE (130 degrees) at 15 MPH (13 knots; 6.7 m/s)
Visibility:10 or more sm (16+ km)
Ceiling:at least 12,000 feet AGL
Clouds: scattered clouds at 3500 feet AGL

TAF for:TIST (St Thomas/King Arpt, --, VI) issued at 1140 UTC 10 Jul 2020
Text:TIST 101140Z 1012/1112 10016KT P6SM FEW024 FEW045
Forecast period:1200 to 2200 UTC 10 July 2020
Forecast type:FROM: standard forecast or significant change
Winds:from the E (100 degrees) at 18 MPH (16 knots; 8.2 m/s)
Visibility:6 or more sm (10+ km)
Ceiling:at least 12,000 feet AGL
Clouds: few clouds at 2400 feet AGL, few clouds at 4500 feet AGL
Text:FM102200 08007KT P6SM FEW024 SCT045
Forecast period:2200 UTC 10 July 2020 to 1200 UTC 11 July 2020
Forecast type:FROM: standard forecast or significant change
Winds:from the E (80 degrees) at 8 MPH (7 knots; 3.6 m/s)
Visibility:6 or more sm (10+ km)
Ceiling:at least 12,000 feet AGL
Clouds: few clouds at 2400 feet AGL, scattered clouds at 4500 feet AGL